createdAt,value
2023-01-09T00:00:44.982Z,98280.69
2023-01-09T00:05:46.672Z,98288.31
2023-01-09T00:10:49.994Z,98280.84
2023-01-09T00:15:51.689Z,98281.53
2023-01-09T00:20:54.395Z,98274.31
2023-01-09T00:26:13.901Z,98266.19
2023-01-09T00:31:16.087Z,98257.19
2023-01-09T00:36:17.707Z,98254.88
2023-01-09T00:41:36.002Z,98243.31
2023-01-09T00:46:41.754Z,98231.19
2023-01-09T00:51:43.469Z,98237.47
2023-01-09T00:56:45.839Z,98222.88
2023-01-09T01:01:47.686Z,98219.00
2023-01-09T01:07:07.997Z,98210.06
2023-01-09T01:12:09.639Z,98200.06
2023-01-09T01:17:11.304Z,98205.69
2023-01-09T01:22:13.061Z,98193.44
2023-01-09T01:27:14.689Z,98185.81
2023-01-09T01:32:16.308Z,98179.00
2023-01-09T01:37:17.972Z,98168.72
2023-01-09T01:42:19.675Z,98165.84
2023-01-09T01:47:23.664Z,98158.84
2023-01-09T01:52:26.367Z,98153.59
2023-01-09T01:57:28.140Z,98153.50
2023-01-09T02:02:31.996Z,98141.84
2023-01-09T02:07:35.006Z,98138.81
2023-01-09T02:12:36.610Z,98116.22
2023-01-09T02:18:01.476Z,98100.44
2023-01-09T02:23:39.887Z,98104.34
2023-01-09T02:29:05.842Z,98083.75
2023-01-09T02:34:14.181Z,98088.91
2023-01-09T02:39:18.627Z,98075.81
2023-01-09T02:44:27.914Z,98067.81
2023-01-09T02:49:29.909Z,98071.81
2023-01-09T02:54:37.483Z,98072.41
2023-01-09T02:59:54.171Z,98071.25
2023-01-09T03:05:28.855Z,98073.28
2023-01-09T03:10:42.446Z,98068.03
2023-01-09T03:15:50.710Z,98075.22
2023-01-09T03:20:54.133Z,98073.78
2023-01-09T03:25:55.724Z,98077.09
2023-01-09T03:30:57.311Z,98068.97
2023-01-09T03:35:58.945Z,98053.31
2023-01-09T03:41:00.560Z,98050.00
2023-01-09T03:46:03.004Z,98036.69
2023-01-09T03:51:04.664Z,98042.28
2023-01-09T03:56:06.613Z,98031.72
2023-01-09T04:01:14.303Z,98029.03
2023-01-09T04:06:15.966Z,98017.91
2023-01-09T04:11:18.262Z,98019.56
2023-01-09T04:16:19.963Z,98010.13
2023-01-09T04:21:21.652Z,98002.75
2023-01-09T04:26:23.414Z,98006.56
2023-01-09T04:31:25.027Z,98007.47
2023-01-09T04:36:26.717Z,97999.75
2023-01-09T04:41:46.688Z,98005.63
2023-01-09T04:46:48.811Z,98002.31
2023-01-09T04:51:50.617Z,97994.13
2023-01-09T04:56:52.212Z,97995.41
2023-01-09T05:01:55.784Z,97994.84
2023-01-09T05:06:57.504Z,97995.66
2023-01-09T05:12:01.588Z,97995.47
2023-01-09T05:17:03.584Z,97997.69
2023-01-09T05:22:05.342Z,97977.25
2023-01-09T05:27:07.084Z,97982.03
2023-01-09T05:32:08.732Z,97967.13
2023-01-09T05:37:10.372Z,97966.00
2023-01-09T05:42:11.972Z,97964.25
2023-01-09T05:47:13.628Z,97982.41
2023-01-09T05:52:15.268Z,97972.13
2023-01-09T05:57:17.176Z,97971.03
2023-01-09T06:02:18.858Z,97957.13
2023-01-09T06:07:23.281Z,97952.13
2023-01-09T06:12:25.039Z,97965.97
2023-01-09T06:17:26.674Z,97963.16
2023-01-09T06:22:28.277Z,97959.03
2023-01-09T06:27:30.017Z,97966.81
2023-01-09T06:32:31.902Z,97964.34
2023-01-09T06:37:33.589Z,97972.25
2023-01-09T06:42:35.189Z,97979.34
2023-01-09T06:47:36.787Z,97983.06
2023-01-09T06:52:38.940Z,97994.84
2023-01-09T06:57:40.557Z,98004.88
2023-01-09T07:02:42.241Z,97994.31
2023-01-09T07:07:43.894Z,97994.06
2023-01-09T07:12:45.538Z,97995.69
2023-01-09T07:17:47.186Z,98000.25
2023-01-09T07:22:48.807Z,98002.69
2023-01-09T07:27:50.472Z,97993.41
2023-01-09T07:32:53.372Z,97983.47
2023-01-09T07:37:54.986Z,97986.50
2023-01-09T07:42:56.652Z,97979.91
2023-01-09T07:47:58.287Z,98004.69
2023-01-09T07:53:00.132Z,98005.53
2023-01-09T07:58:01.809Z,98011.31
2023-01-09T08:03:03.468Z,98024.09
2023-01-09T08:08:05.358Z,98015.00
2023-01-09T08:13:07.007Z,98014.88
2023-01-09T08:18:08.856Z,98020.53
2023-01-09T08:23:10.439Z,98021.06
2023-01-09T08:28:12.682Z,98027.81
2023-01-09T08:33:14.363Z,98041.59
2023-01-09T08:38:16.050Z,98040.06
2023-01-09T08:43:36.371Z,98055.75
2023-01-09T08:48:37.986Z,98062.78
2023-01-09T08:53:39.621Z,98074.38
2023-01-09T08:58:41.221Z,98084.34
2023-01-09T09:03:42.847Z,98074.88
2023-01-09T09:08:44.487Z,98075.09
2023-01-09T09:13:46.148Z,98083.56
2023-01-09T09:18:47.733Z,98083.44
2023-01-09T09:23:49.380Z,98112.50
2023-01-09T09:28:50.970Z,98106.47
2023-01-09T09:33:52.545Z,98092.47
2023-01-09T09:38:54.141Z,98105.91
2023-01-09T09:44:23.967Z,98112.13
2023-01-09T09:49:40.323Z,98116.69
2023-01-09T09:54:47.315Z,98116.75
2023-01-09T09:59:51.511Z,98124.19
2023-01-09T10:05:07.619Z,98110.56
2023-01-09T10:10:38.138Z,98119.25
2023-01-09T10:15:49.752Z,98132.88
2023-01-09T10:21:10.531Z,98142.38
2023-01-09T10:26:22.035Z,98152.22
2023-01-09T10:31:48.784Z,98158.66
2023-01-09T10:37:08.796Z,98161.50
2023-01-09T10:42:55.672Z,98204.06
2023-01-09T10:48:11.401Z,98216.56
2023-01-09T10:53:21.375Z,98199.97
2023-01-09T10:58:23.325Z,98203.72
2023-01-09T11:03:28.010Z,98228.59
2023-01-09T11:08:43.028Z,98226.03
2023-01-09T11:13:48.591Z,98235.84
2023-01-09T11:18:54.357Z,98219.84
2023-01-09T11:23:56.656Z,98234.09
2023-01-09T11:29:12.065Z,98242.06
2023-01-09T11:34:18.872Z,98236.28
2023-01-09T11:39:27.314Z,98238.63
2023-01-09T11:44:31.911Z,98235.31
2023-01-09T11:49:33.536Z,98238.28
2023-01-09T11:54:38.314Z,98218.72
2023-01-09T11:59:40.034Z,98234.97
2023-01-09T12:05:17.438Z,98234.50
2023-01-09T12:10:42.874Z,98236.56
2023-01-09T12:16:11.509Z,98246.28
2023-01-09T12:21:43.765Z,98243.91
2023-01-09T12:27:21.486Z,98259.34
2023-01-09T12:32:25.869Z,98251.03
2023-01-09T12:37:33.209Z,98259.84
2023-01-09T12:42:46.665Z,98269.59
2023-01-09T12:47:50.180Z,98255.94
2023-01-09T12:53:27.276Z,98254.03
2023-01-09T12:58:40.448Z,98266.84
2023-01-09T13:04:09.683Z,98260.00
2023-01-09T13:09:29.404Z,98278.22
2023-01-09T13:14:51.336Z,98296.88
2023-01-09T13:19:54.196Z,98288.34
2023-01-09T13:25:17.806Z,98295.41
2023-01-09T13:30:45.096Z,98287.94
2023-01-09T13:35:52.487Z,98293.25
2023-01-09T13:41:30.455Z,98295.69
2023-01-09T13:46:39.187Z,98311.78
2023-01-09T13:51:43.504Z,98320.34
2023-01-09T13:57:17.101Z,98333.34
2023-01-09T14:02:34.072Z,98344.94
2023-01-09T14:07:37.812Z,98345.31
2023-01-09T14:12:41.887Z,98357.94
2023-01-09T14:17:43.647Z,98363.06
2023-01-09T14:22:56.050Z,98366.91
2023-01-09T14:28:09.012Z,98370.81
2023-01-09T14:33:19.891Z,98365.19
2023-01-09T14:38:41.807Z,98382.53
2023-01-09T14:44:03.468Z,98384.16
2023-01-09T14:49:39.391Z,98385.28
2023-01-09T14:54:44.061Z,98385.97
2023-01-09T14:59:58.880Z,98393.78
2023-01-09T15:05:09.565Z,98407.19
2023-01-09T15:10:19.658Z,98406.94
2023-01-09T15:15:22.542Z,98405.91
2023-01-09T15:20:27.395Z,98417.63
2023-01-09T15:25:40.005Z,98418.22
2023-01-09T15:30:43.423Z,98421.38
2023-01-09T15:35:49.588Z,98419.59
2023-01-09T15:41:13.663Z,98416.16
2023-01-09T15:46:16.213Z,98422.19
2023-01-09T15:51:18.571Z,98427.22
2023-01-09T15:56:25.645Z,98441.25
2023-01-09T16:01:40.589Z,98443.63
2023-01-09T16:06:52.664Z,98464.56
2023-01-09T16:11:58.008Z,98450.06
2023-01-09T16:17:02.311Z,98467.59
2023-01-09T16:22:04.233Z,98455.53
2023-01-09T16:27:34.948Z,98457.56
2023-01-09T16:32:47.496Z,98462.72
2023-01-09T16:37:49.099Z,98468.97
2023-01-09T16:43:05.582Z,98479.53
2023-01-09T16:48:13.965Z,98480.16
2023-01-09T16:53:16.971Z,98491.69
2023-01-09T16:58:25.528Z,98495.13
2023-01-09T17:03:27.170Z,98495.97
2023-01-09T17:08:31.672Z,98502.88
2023-01-09T17:13:33.364Z,98497.69
2023-01-09T17:18:34.954Z,98520.28
2023-01-09T17:23:36.541Z,98505.88
2023-01-09T17:28:39.251Z,98521.22
2023-01-09T17:33:41.130Z,98515.16
2023-01-09T17:38:42.733Z,98525.47
2023-01-09T17:43:46.690Z,98533.88
2023-01-09T17:48:48.780Z,98542.78
2023-01-09T17:53:50.920Z,98546.06
2023-01-09T17:58:52.940Z,98555.34
2023-01-09T18:03:54.673Z,98559.72
2023-01-09T18:08:58.201Z,98574.16
2023-01-09T18:14:00.114Z,98569.34
2023-01-09T18:19:02.331Z,98573.72
2023-01-09T18:24:04.143Z,98567.06
2023-01-09T18:29:05.735Z,98574.41
2023-01-09T18:34:09.292Z,98578.22
2023-01-09T18:39:11.804Z,98568.25
2023-01-09T18:44:13.511Z,98581.13
2023-01-09T18:49:15.124Z,98577.44
2023-01-09T18:54:16.809Z,98569.91
2023-01-09T18:59:18.418Z,98559.59
2023-01-09T19:04:20.189Z,98572.97
2023-01-09T19:09:21.814Z,98584.09
2023-01-09T19:14:23.406Z,98590.44
2023-01-09T19:19:25.748Z,98593.06
2023-01-09T19:24:27.449Z,98612.78
2023-01-09T19:29:29.658Z,98626.88
2023-01-09T19:34:31.351Z,98636.63
2023-01-09T19:39:32.942Z,98643.94
2023-01-09T19:44:34.896Z,98640.78
2023-01-09T19:49:36.821Z,98645.81
2023-01-09T19:54:39.231Z,98664.47
2023-01-09T19:59:40.851Z,98662.19
2023-01-09T20:04:42.457Z,98678.84
2023-01-09T20:09:44.154Z,98693.50
2023-01-09T20:14:45.926Z,98704.81
2023-01-09T20:19:47.523Z,98709.25
2023-01-09T20:24:49.165Z,98708.44
2023-01-09T20:29:50.795Z,98723.91
2023-01-09T20:34:52.440Z,98728.94
2023-01-09T20:39:54.089Z,98744.44
2023-01-09T20:44:57.151Z,98759.63
2023-01-09T20:49:58.742Z,98759.41
2023-01-09T20:55:00.397Z,98750.09
2023-01-09T21:00:02.218Z,98754.22
2023-01-09T21:05:04.189Z,98755.06
2023-01-09T21:10:06.253Z,98760.44
2023-01-09T21:15:11.497Z,98763.13
2023-01-09T21:20:15.044Z,98778.38
2023-01-09T21:25:16.790Z,98782.88
2023-01-09T21:30:18.518Z,98775.84
2023-01-09T21:35:20.133Z,98785.53
2023-01-09T21:40:21.766Z,98799.06
2023-01-09T21:45:42.230Z,98824.38
2023-01-09T21:50:43.883Z,98832.75
2023-01-09T21:55:45.475Z,98856.13
2023-01-09T22:00:47.113Z,98856.28
2023-01-09T22:05:48.741Z,98851.28
2023-01-09T22:10:58.589Z,98839.13
2023-01-09T22:16:08.710Z,98835.91
2023-01-09T22:21:10.388Z,98832.22
2023-01-09T22:26:15.246Z,98828.59
2023-01-09T22:31:22.065Z,98823.59
2023-01-09T22:36:25.064Z,98834.09
2023-01-09T22:41:29.755Z,98842.78
2023-01-09T22:46:32.597Z,98851.66
2023-01-09T22:51:34.320Z,98870.84
2023-01-09T22:56:36.307Z,98878.50
2023-01-09T23:01:37.987Z,98881.69
2023-01-09T23:06:39.663Z,98894.38
2023-01-09T23:11:59.755Z,98898.22
2023-01-09T23:17:02.633Z,98910.22
2023-01-09T23:22:04.852Z,98906.22
2023-01-09T23:27:07.563Z,98909.72
2023-01-09T23:32:09.171Z,98916.91
2023-01-09T23:37:10.885Z,98930.59
2023-01-09T23:42:31.052Z,98944.09
2023-01-09T23:47:32.644Z,98961.63
2023-01-09T23:52:34.234Z,98969.28
2023-01-09T23:57:35.834Z,98979.97
